createdAt,value
2023-04-04T00:02:59.972Z,65.10
2023-04-04T00:06:03.270Z,65.10
2023-04-04T00:09:10.688Z,65.00
2023-04-04T00:12:14.101Z,65.00
2023-04-04T00:15:17.388Z,65.20
2023-04-04T00:18:20.988Z,65.30
2023-04-04T00:21:25.540Z,65.40
2023-04-04T00:24:30.697Z,65.50
2023-04-04T00:27:34.377Z,65.70
2023-04-04T00:30:38.120Z,66.00
2023-04-04T00:33:41.231Z,66.00
2023-04-04T00:36:44.333Z,66.00
2023-04-04T00:39:50.375Z,66.20
2023-04-04T00:42:54.434Z,66.20
2023-04-04T00:45:57.956Z,66.20
2023-04-04T00:49:01.055Z,66.30
2023-04-04T00:52:07.214Z,66.40
2023-04-04T00:55:12.111Z,66.50
2023-04-04T00:58:15.248Z,66.70
2023-04-04T01:01:18.492Z,66.60
2023-04-04T01:04:21.672Z,66.90
2023-04-04T01:07:25.052Z,66.80
2023-04-04T01:10:31.760Z,66.80
2023-04-04T01:13:36.734Z,66.90
2023-04-04T01:16:40.446Z,66.80
2023-04-04T01:19:49.678Z,66.90
2023-04-04T01:22:54.809Z,66.90
2023-04-04T01:26:04.722Z,67.00
2023-04-04T01:29:07.796Z,67.20
2023-04-04T01:32:15.941Z,67.20
2023-04-04T01:35:30.055Z,67.30
2023-04-04T01:38:42.332Z,67.30
2023-04-04T01:41:49.749Z,67.30
2023-04-04T01:44:56.236Z,67.50
2023-04-04T01:47:59.306Z,67.50
2023-04-04T01:51:03.289Z,67.50
2023-04-04T01:54:06.808Z,67.50
2023-04-04T01:57:11.165Z,67.60
2023-04-04T02:00:16.530Z,67.60
2023-04-04T02:03:19.530Z,67.70
2023-04-04T02:06:22.754Z,67.80
2023-04-04T02:09:26.198Z,67.90
2023-04-04T02:12:30.762Z,68.00
2023-04-04T02:15:34.439Z,68.00
2023-04-04T02:18:37.565Z,68.00
2023-04-04T02:21:40.685Z,68.20
2023-04-04T02:24:43.753Z,68.20
2023-04-04T02:27:48.119Z,68.20
2023-04-04T02:30:51.178Z,68.20
2023-04-04T02:33:54.208Z,68.40
2023-04-04T02:36:57.435Z,68.40
2023-04-04T02:40:00.449Z,68.50
2023-04-04T02:43:04.795Z,68.60
2023-04-04T02:46:20.485Z,68.70
2023-04-04T02:49:24.766Z,68.70
2023-04-04T02:52:27.844Z,69.00
2023-04-04T02:55:33.757Z,68.90
2023-04-04T02:58:38.698Z,68.90
2023-04-04T03:01:42.843Z,69.00
2023-04-04T03:04:46.073Z,69.00
2023-04-04T03:07:48.994Z,69.00
2023-04-04T03:10:51.991Z,69.00
2023-04-04T03:13:56.581Z,69.00
2023-04-04T03:16:59.698Z,69.20
2023-04-04T03:20:02.749Z,69.10
2023-04-04T03:23:05.776Z,69.10
2023-04-04T03:26:08.747Z,69.10
2023-04-04T03:29:13.166Z,69.00
2023-04-04T03:32:16.261Z,69.00
2023-04-04T03:35:19.209Z,69.20
2023-04-04T03:38:22.434Z,69.30
2023-04-04T03:41:25.368Z,69.40
2023-04-04T03:44:30.605Z,69.60
2023-04-04T03:47:33.664Z,69.40
2023-04-04T03:50:37.605Z,69.40
2023-04-04T03:53:40.974Z,69.40
2023-04-04T03:56:44.429Z,69.40
2023-04-04T03:59:49.095Z,69.30
2023-04-04T04:02:52.085Z,69.40
2023-04-04T04:05:55.600Z,69.50
2023-04-04T04:08:58.900Z,69.50
2023-04-04T04:12:01.878Z,69.50
2023-04-04T04:15:07.238Z,69.60
2023-04-04T04:18:10.216Z,69.60
2023-04-04T04:21:13.184Z,69.60
2023-04-04T04:24:16.468Z,69.70
2023-04-04T04:27:19.563Z,70.00
2023-04-04T04:30:24.440Z,70.10
2023-04-04T04:33:30.807Z,69.90
2023-04-04T04:36:34.847Z,70.00
2023-04-04T04:39:37.991Z,69.90
2023-04-04T04:42:45.792Z,70.00
2023-04-04T04:45:50.767Z,70.00
2023-04-04T04:48:54.797Z,70.00
2023-04-04T04:51:57.786Z,70.10
2023-04-04T04:55:03.115Z,70.00
2023-04-04T04:58:06.883Z,70.00
2023-04-04T05:01:11.318Z,70.00
2023-04-04T05:04:14.688Z,70.00
2023-04-04T05:07:18.483Z,70.00
2023-04-04T05:10:21.488Z,70.10
2023-04-04T05:13:25.125Z,70.10
2023-04-04T05:16:29.811Z,70.00
2023-04-04T05:19:32.932Z,69.90
2023-04-04T05:22:36.102Z,69.80
2023-04-04T05:25:39.064Z,69.90
2023-04-04T05:28:42.298Z,69.90
2023-04-04T05:31:47.622Z,70.00
2023-04-04T05:34:50.822Z,70.00
2023-04-04T05:37:57.032Z,69.80
2023-04-04T05:41:00.010Z,69.70
2023-04-04T05:44:03.100Z,69.80
2023-04-04T05:47:07.602Z,69.40
2023-04-04T05:50:11.605Z,69.30
2023-04-04T05:53:14.544Z,68.90
2023-04-04T05:56:18.005Z,68.70
2023-04-04T05:59:21.104Z,68.40
2023-04-04T06:02:25.795Z,68.20
2023-04-04T06:05:28.839Z,68.00
2023-04-04T06:08:35.366Z,67.90
2023-04-04T06:11:43.411Z,67.90
2023-04-04T06:14:46.642Z,67.80
2023-04-04T06:17:51.297Z,67.50
2023-04-04T06:20:54.422Z,66.90
2023-04-04T06:23:57.906Z,66.10
2023-04-04T06:27:00.854Z,65.80
2023-04-04T06:30:03.944Z,65.70
2023-04-04T06:33:08.385Z,65.50
2023-04-04T06:36:11.478Z,65.00
2023-04-04T06:39:14.742Z,64.80
2023-04-04T06:42:17.717Z,64.30
2023-04-04T06:45:20.692Z,64.00
2023-04-04T06:48:25.178Z,63.40
2023-04-04T06:51:28.651Z,62.30
2023-04-04T06:54:31.859Z,62.10
2023-04-04T06:57:34.793Z,60.30
2023-04-04T07:00:38.010Z,60.20
2023-04-04T07:03:44.466Z,60.20
2023-04-04T07:06:47.659Z,61.50
2023-04-04T07:09:50.711Z,57.50
2023-04-04T07:12:55.467Z,55.90
2023-04-04T07:15:58.443Z,55.90
2023-04-04T07:19:02.804Z,55.80
2023-04-04T07:22:06.096Z,56.10
2023-04-04T07:25:10.146Z,56.70
2023-04-04T07:28:13.713Z,56.50
2023-04-04T07:31:16.794Z,56.70
2023-04-04T07:34:21.211Z,57.20
2023-04-04T07:37:26.546Z,57.20
2023-04-04T07:40:29.557Z,57.50
2023-04-04T07:43:32.785Z,57.80
2023-04-04T07:46:36.003Z,57.50
2023-04-04T07:49:40.740Z,57.90
2023-04-04T07:52:49.349Z,57.80
2023-04-04T07:55:52.307Z,57.90
2023-04-04T07:58:55.617Z,58.40
2023-04-04T08:01:58.639Z,58.20
2023-04-04T08:05:03.286Z,57.70
2023-04-04T08:08:06.476Z,57.70
2023-04-04T08:11:09.402Z,57.70
2023-04-04T08:14:13.247Z,57.20
2023-04-04T08:17:18.924Z,56.00
2023-04-04T08:20:23.417Z,55.30
2023-04-04T08:23:26.361Z,54.80
2023-04-04T08:26:29.512Z,55.50
2023-04-04T08:29:32.789Z,55.20
2023-04-04T08:32:35.884Z,55.30
2023-04-04T08:35:40.258Z,54.60
2023-04-04T08:38:43.911Z,54.20
2023-04-04T08:41:47.332Z,53.90
2023-04-04T08:44:52.759Z,53.80
2023-04-04T08:47:58.940Z,53.70
2023-04-04T08:51:05.427Z,52.50
2023-04-04T08:54:09.543Z,52.30
2023-04-04T08:57:12.624Z,52.30
2023-04-04T09:00:17.921Z,52.00
2023-04-04T09:03:26.140Z,51.60
2023-04-04T09:06:30.927Z,51.50
2023-04-04T09:09:37.816Z,51.40
2023-04-04T09:12:47.401Z,52.20
2023-04-04T09:15:54.058Z,50.50
2023-04-04T09:18:56.930Z,50.50
2023-04-04T09:22:01.253Z,50.50
2023-04-04T09:25:08.924Z,50.00
2023-04-04T09:28:12.680Z,50.10
2023-04-04T09:31:17.278Z,50.40
2023-04-04T09:34:21.608Z,50.00
2023-04-04T09:37:26.390Z,50.10
2023-04-04T09:40:30.506Z,49.80
2023-04-04T09:43:35.112Z,49.40
2023-04-04T09:46:39.052Z,48.40
2023-04-04T09:49:42.238Z,49.10
2023-04-04T09:52:49.835Z,48.20
2023-04-04T09:55:54.318Z,48.40
2023-04-04T09:59:04.005Z,48.00
2023-04-04T10:02:11.045Z,48.00
2023-04-04T10:05:15.632Z,47.80
2023-04-04T10:08:23.213Z,47.20
2023-04-04T10:11:32.286Z,47.20
2023-04-04T10:14:36.584Z,46.20
2023-04-04T10:17:42.095Z,46.20
2023-04-04T10:20:45.315Z,46.60
2023-04-04T10:23:50.500Z,46.40
2023-04-04T10:26:54.825Z,46.40
2023-04-04T10:29:58.074Z,46.50
2023-04-04T10:33:07.796Z,46.20
2023-04-04T10:36:13.441Z,46.00
2023-04-04T10:39:23.136Z,46.30
2023-04-04T10:42:32.047Z,45.70
2023-04-04T10:45:38.395Z,45.30
2023-04-04T10:48:42.950Z,45.50
2023-04-04T10:51:55.858Z,44.90
2023-04-04T10:55:04.268Z,45.60
2023-04-04T10:58:08.901Z,44.70
2023-04-04T11:01:11.888Z,43.30
2023-04-04T11:04:21.106Z,44.00
2023-04-04T11:07:29.447Z,43.80
2023-04-04T11:10:36.728Z,44.80
2023-04-04T11:13:41.463Z,44.10
2023-04-04T11:16:48.223Z,43.90
2023-04-04T11:20:00.366Z,43.70
2023-04-04T11:23:05.366Z,43.60
2023-04-04T11:26:10.083Z,43.40
2023-04-04T11:29:22.144Z,44.30
2023-04-04T11:32:35.759Z,44.20
2023-04-04T11:35:40.824Z,43.60
2023-04-04T11:38:50.689Z,43.50
2023-04-04T11:42:04.041Z,43.50
2023-04-04T11:45:10.115Z,43.30
2023-04-04T11:48:15.207Z,43.70
2023-04-04T11:51:20.896Z,43.60
2023-04-04T11:54:24.341Z,43.30
2023-04-04T11:57:28.713Z,41.90
2023-04-04T12:00:32.701Z,41.90
2023-04-04T12:03:37.723Z,42.70
2023-04-04T12:06:41.144Z,42.10
2023-04-04T12:09:44.669Z,42.70
2023-04-04T12:12:49.384Z,43.10
2023-04-04T12:15:52.761Z,43.50
2023-04-04T12:18:55.828Z,42.50
2023-04-04T12:21:59.413Z,43.50
2023-04-04T12:25:02.555Z,41.40
2023-04-04T12:28:08.052Z,41.30
2023-04-04T12:31:11.896Z,41.20
2023-04-04T12:34:19.321Z,41.90
2023-04-04T12:37:23.467Z,41.50
2023-04-04T12:40:31.284Z,41.00
2023-04-04T12:43:36.755Z,41.60
2023-04-04T12:46:41.015Z,41.70
2023-04-04T12:49:48.658Z,41.90
2023-04-04T12:52:55.528Z,41.60
2023-04-04T12:56:05.564Z,42.20
2023-04-04T12:59:11.500Z,42.60
2023-04-04T13:02:17.449Z,41.70
2023-04-04T13:05:23.239Z,41.90
2023-04-04T13:08:26.597Z,41.50
2023-04-04T13:12:01.045Z,41.60
2023-04-04T13:15:07.631Z,42.10
2023-04-04T13:18:16.517Z,41.80
2023-04-04T13:21:19.721Z,41.90
2023-04-04T13:24:22.895Z,41.90
2023-04-04T13:27:28.562Z,41.80
2023-04-04T13:30:33.126Z,41.00
2023-04-04T13:33:36.632Z,41.10
2023-04-04T13:36:39.668Z,41.50
2023-04-04T13:39:42.734Z,41.40
2023-04-04T13:42:45.823Z,40.90
2023-04-04T13:45:50.400Z,41.00
2023-04-04T13:48:53.452Z,41.50
2023-04-04T13:51:56.408Z,41.30
2023-04-04T13:54:59.365Z,41.90
2023-04-04T13:58:02.414Z,41.80
2023-04-04T14:01:07.277Z,42.20
2023-04-04T14:04:22.725Z,41.80
2023-04-04T14:07:26.681Z,41.80
2023-04-04T14:10:29.710Z,41.90
2023-04-04T14:13:35.795Z,41.50
2023-04-04T14:16:40.383Z,40.50
2023-04-04T14:19:45.310Z,41.20
2023-04-04T14:22:48.555Z,41.40
2023-04-04T14:25:51.699Z,41.50
2023-04-04T14:28:54.662Z,41.00
2023-04-04T14:31:59.319Z,41.50
2023-04-04T14:35:02.437Z,41.50
2023-04-04T14:38:05.552Z,41.40
2023-04-04T14:41:08.829Z,40.50
2023-04-04T14:44:11.794Z,41.10
2023-04-04T14:47:16.479Z,41.00
2023-04-04T14:50:19.458Z,41.20
2023-04-04T14:53:22.855Z,41.40
2023-04-04T14:56:26.109Z,41.70
2023-04-04T14:59:29.459Z,41.60
2023-04-04T15:02:34.036Z,40.50
2023-04-04T15:05:37.083Z,41.40
2023-04-04T15:08:41.637Z,40.60
2023-04-04T15:11:45.055Z,41.50
2023-04-04T15:14:48.291Z,41.50
2023-04-04T15:17:52.982Z,42.20
2023-04-04T15:20:58.860Z,42.50
2023-04-04T15:24:01.909Z,42.80
2023-04-04T15:27:04.944Z,42.90
2023-04-04T15:30:09.316Z,42.40
2023-04-04T15:33:13.680Z,43.00
2023-04-04T15:36:17.894Z,42.10
2023-04-04T15:39:21.093Z,42.60
2023-04-04T15:42:24.445Z,42.20
2023-04-04T15:45:28.009Z,43.00
2023-04-04T15:48:34.209Z,43.50
2023-04-04T15:51:39.006Z,43.40
2023-04-04T15:54:42.829Z,43.00
2023-04-04T15:57:46.384Z,43.20
2023-04-04T16:00:49.443Z,43.20
2023-04-04T16:03:53.919Z,43.30
2023-04-04T16:06:56.999Z,43.20
2023-04-04T16:09:59.958Z,43.50
2023-04-04T16:13:03.100Z,43.70
2023-04-04T16:16:06.380Z,44.00
2023-04-04T16:19:14.168Z,43.50
2023-04-04T16:22:17.435Z,44.50
2023-04-04T16:25:21.098Z,44.30
2023-04-04T16:28:24.293Z,45.10
2023-04-04T16:31:27.345Z,44.80
2023-04-04T16:34:31.742Z,44.90
2023-04-04T16:37:34.705Z,45.30
2023-04-04T16:40:37.837Z,45.80
2023-04-04T16:43:41.186Z,45.60
2023-04-04T16:46:44.224Z,46.00
2023-04-04T16:49:49.282Z,46.00
2023-04-04T16:52:54.003Z,45.60
2023-04-04T16:55:57.029Z,45.90
2023-04-04T16:59:00.121Z,46.20
2023-04-04T17:02:05.243Z,46.00
2023-04-04T17:05:10.273Z,46.70
2023-04-04T17:08:13.364Z,47.20
2023-04-04T17:11:19.074Z,47.40
2023-04-04T17:14:22.477Z,47.30
2023-04-04T17:17:25.465Z,47.70
2023-04-04T17:20:34.378Z,48.00
2023-04-04T17:23:37.755Z,48.10
2023-04-04T17:26:41.657Z,47.90
2023-04-04T17:29:45.670Z,48.30
2023-04-04T17:32:49.116Z,48.30
2023-04-04T17:35:53.552Z,48.50
2023-04-04T17:38:56.803Z,48.60
2023-04-04T17:41:59.886Z,49.00
2023-04-04T17:45:03.101Z,49.30
2023-04-04T17:48:06.624Z,49.40
2023-04-04T17:51:12.569Z,49.40
2023-04-04T17:54:15.668Z,49.50
2023-04-04T17:57:19.192Z,49.80
2023-04-04T18:00:23.545Z,49.90
2023-04-04T18:03:26.747Z,50.10
2023-04-04T18:06:31.602Z,49.80
2023-04-04T18:09:34.639Z,49.60
2023-04-04T18:12:37.897Z,50.10
2023-04-04T18:15:41.445Z,50.10
2023-04-04T18:18:44.787Z,49.90
2023-04-04T18:21:51.236Z,50.30
2023-04-04T18:24:55.907Z,50.50
2023-04-04T18:27:58.994Z,50.70
2023-04-04T18:31:03.291Z,50.40
2023-04-04T18:34:06.504Z,50.40
2023-04-04T18:37:12.322Z,50.50
2023-04-04T18:40:17.101Z,50.70
2023-04-04T18:43:20.413Z,51.10
2023-04-04T18:46:23.406Z,50.90
2023-04-04T18:49:27.151Z,51.00
2023-04-04T18:52:31.873Z,51.20
2023-04-04T18:55:34.967Z,51.40
2023-04-04T18:58:38.223Z,51.50
2023-04-04T19:01:41.545Z,51.50
2023-04-04T19:04:45.503Z,51.70
2023-04-04T19:07:52.201Z,51.50
2023-04-04T19:10:55.486Z,51.70
2023-04-04T19:13:58.645Z,51.80
2023-04-04T19:17:01.692Z,52.00
2023-04-04T19:20:04.950Z,52.20
2023-04-04T19:23:10.287Z,52.20
2023-04-04T19:26:14.690Z,52.40
2023-04-04T19:29:22.112Z,52.60
2023-04-04T19:32:29.103Z,53.00
2023-04-04T19:35:53.610Z,53.00
2023-04-04T19:38:58.198Z,53.00
2023-04-04T19:42:02.592Z,53.10
2023-04-04T19:45:13.977Z,53.10
2023-04-04T19:48:43.308Z,53.30
2023-04-04T19:51:56.547Z,53.40
2023-04-04T19:55:03.744Z,53.50
2023-04-04T19:58:07.369Z,53.80
2023-04-04T20:01:11.870Z,53.70
2023-04-04T20:04:14.963Z,54.00
2023-04-04T20:07:18.336Z,54.00
2023-04-04T20:10:38.148Z,54.10
2023-04-04T20:13:42.292Z,53.70
2023-04-04T20:16:45.871Z,53.50
2023-04-04T20:19:49.227Z,53.70
2023-04-04T20:22:52.894Z,53.60
2023-04-04T20:26:05.805Z,53.50
2023-04-04T20:29:10.604Z,53.60
2023-04-04T20:32:13.983Z,53.50
2023-04-04T20:35:27.846Z,53.50
2023-04-04T20:38:30.981Z,53.60
2023-04-04T20:41:35.450Z,53.60
2023-04-04T20:44:38.494Z,53.60
2023-04-04T20:47:46.641Z,53.10
2023-04-04T20:50:50.654Z,52.80
2023-04-04T20:53:55.027Z,52.50
2023-04-04T20:56:59.464Z,52.40
2023-04-04T21:00:04.567Z,52.20
2023-04-04T21:03:10.889Z,52.20
2023-04-04T21:06:16.388Z,52.20
2023-04-04T21:09:20.056Z,52.40
2023-04-04T21:12:24.615Z,52.90
2023-04-04T21:15:30.193Z,52.90
2023-04-04T21:18:33.665Z,52.90
2023-04-04T21:21:37.365Z,53.10
2023-04-04T21:24:41.295Z,53.30
2023-04-04T21:27:45.711Z,53.50
2023-04-04T21:30:48.766Z,53.80
2023-04-04T21:33:54.196Z,54.00
2023-04-04T21:37:01.808Z,54.20
2023-04-04T21:40:08.166Z,54.60
2023-04-04T21:43:12.575Z,54.50
2023-04-04T21:46:15.948Z,54.60
2023-04-04T21:49:19.347Z,54.80
2023-04-04T21:52:22.362Z,54.90
2023-04-04T21:55:25.653Z,54.90
2023-04-04T21:58:30.483Z,55.00
2023-04-04T22:01:33.526Z,55.00
2023-04-04T22:04:36.667Z,55.00
2023-04-04T22:07:41.807Z,55.20
2023-04-04T22:10:49.988Z,55.00
2023-04-04T22:14:03.528Z,55.00
2023-04-04T22:17:06.991Z,54.80
2023-04-04T22:20:12.756Z,54.80
2023-04-04T22:23:17.787Z,54.90
2023-04-04T22:26:29.081Z,54.80
2023-04-04T22:29:34.042Z,55.00
2023-04-04T22:32:39.348Z,55.10
2023-04-04T22:35:43.472Z,55.00
2023-04-04T22:38:46.501Z,54.90
2023-04-04T22:41:49.500Z,54.80
2023-04-04T22:44:53.784Z,54.70
2023-04-04T22:47:57.614Z,54.60
2023-04-04T22:51:02.713Z,54.60
2023-04-04T22:54:05.780Z,54.60
2023-04-04T22:57:08.852Z,54.60
2023-04-04T23:00:14.742Z,54.60
2023-04-04T23:03:17.804Z,54.70
2023-04-04T23:06:21.016Z,54.70
2023-04-04T23:09:24.109Z,54.80
2023-04-04T23:12:27.194Z,54.80
2023-04-04T23:15:35.428Z,55.00
2023-04-04T23:18:38.815Z,55.20
2023-04-04T23:21:42.089Z,55.30
2023-04-04T23:24:47.334Z,55.20
2023-04-04T23:27:50.396Z,55.30
2023-04-04T23:30:54.789Z,55.40
2023-04-04T23:33:57.815Z,55.40
2023-04-04T23:37:01.379Z,55.70
2023-04-04T23:40:06.634Z,55.70
2023-04-04T23:43:09.665Z,55.70
2023-04-04T23:46:14.528Z,55.70
2023-04-04T23:49:18.120Z,55.80
2023-04-04T23:52:21.493Z,55.90
2023-04-04T23:55:24.577Z,56.40
2023-04-04T23:58:27.953Z,56.50
